Time;durP1;ratioP1;P1;durP2;ratioP2;P2;SDS_P1;SDS_P2;PMS_P1;PMS_P2;Temp;Humidity;BMP_temperature;BMP_pressure;BME280_temperature;BME280_humidity;BME280_pressure;Samples;Min_cycle;Max_cycle;Signal;HPM_P1;HPM_P2
2022/09/27 00:01:04;;;;;;;0.98;0.90;;;13.50;75.00;;;;;;5014673;28;20034;-61
2022/09/27 00:03:30;;;;;;;1.25;0.95;;;13.50;75.40;;;;;;5015332;28;20064;-60
2022/09/27 00:06:18;;;;;;;2.88;0.93;;;13.40;75.40;;;;;;5014604;28;20451;-60
2022/09/27 00:08:44;;;;;;;1.02;0.70;;;13.40;76.10;;;;;;5017230;28;20069;-60
2022/09/27 00:11:16;;;;;;;1.08;0.70;;;13.40;75.70;;;;;;5014759;28;20111;-60
2022/09/27 00:13:42;;;;;;;0.90;0.80;;;13.30;75.90;;;;;;5017731;28;20049;-59
2022/09/27 00:16:08;;;;;;;0.70;0.60;;;13.30;76.00;;;;;;5013022;28;20030;-61
2022/09/27 00:18:34;;;;;;;1.00;0.50;;;13.20;76.10;;;;;;5016065;28;20040;-59
2022/09/27 00:21:07;;;;;;;0.77;0.60;;;13.20;76.30;;;;;;5013763;28;20401;-59
2022/09/27 00:23:33;;;;;;;1.65;0.60;;;13.20;76.90;;;;;;5018115;28;20033;-59
2022/09/27 00:25:59;;;;;;;2.13;0.60;;;13.10;76.60;;;;;;5017200;28;20408;-61
2022/09/27 00:28:26;;;;;;;1.23;0.40;;;13.10;76.80;;;;;;5014734;28;20043;-61
2022/09/27 00:30:52;;;;;;;1.15;0.40;;;13.10;76.80;;;;;;5012953;28;20037;-60
2022/09/27 00:33:18;;;;;;;0.98;0.50;;;13.00;77.00;;;;;;5013352;28;20030;-61
2022/09/27 00:35:45;;;;;;;1.17;0.50;;;13.00;77.10;;;;;;5013865;28;20049;-58
2022/09/27 00:38:11;;;;;;;1.27;0.43;;;13.00;77.50;;;;;;5013054;28;20045;-61
2022/09/27 00:40:38;;;;;;;1.85;0.60;;;12.90;77.50;;;;;;5014818;28;20038;-59
2022/09/27 00:43:20;;;;;;;2.17;0.40;;;12.90;77.60;;;;;;5011058;28;20045;-59
2022/09/27 00:45:54;;;;;;;2.53;0.63;;;12.80;78.20;;;;;;5013298;28;20026;-60
2022/09/27 00:48:23;;;;;;;2.22;0.50;;;12.80;78.10;;;;;;5010441;28;20091;-60
2022/09/27 00:50:53;;;;;;;2.83;0.50;;;12.80;78.00;;;;;;5015567;28;20034;-60
2022/09/27 00:53:36;;;;;;;1.02;0.43;;;12.70;77.90;;;;;;5014834;28;20045;-60
2022/09/27 00:56:07;;;;;;;0.73;0.60;;;12.70;78.50;;;;;;5013337;28;20038;-58
2022/09/27 00:58:37;;;;;;;0.70;0.50;;;12.60;78.40;;;;;;5015664;28;20041;-57
2022/09/27 01:01:06;;;;;;;0.90;0.50;;;12.60;78.50;;;;;;5016906;28;20033;-60
2022/09/27 01:04:04;;;;;;;0.50;0.50;;;12.60;78.90;;;;;;5013103;28;20083;-58
2022/09/27 01:06:29;;;;;;;0.60;0.40;;;12.50;79.50;;;;;;5009522;28;20042;-60
2022/09/27 01:08:55;;;;;;;1.58;0.55;;;12.50;79.00;;;;;;5014139;28;20176;-60
2022/09/27 01:11:24;;;;;;;1.08;0.55;;;12.50;79.30;;;;;;5009337;28;20858;-58
2022/09/27 01:14:04;;;;;;;0.95;0.60;;;12.40;79.60;;;;;;5011884;28;20054;-58
2022/09/27 01:16:57;;;;;;;0.50;0.50;;;12.40;79.80;;;;;;5013832;28;20041;-60
2022/09/27 01:19:38;;;;;;;0.80;0.40;;;12.40;80.30;;;;;;5013859;28;20029;-59
2022/09/27 01:22:19;;;;;;;0.70;0.45;;;12.30;80.10;;;;;;5013800;28;20026;-60
2022/09/27 01:25:15;;;;;;;1.52;0.50;;;12.30;80.40;;;;;;5013225;28;20060;-59
2022/09/27 01:28:03;;;;;;;1.40;0.70;;;12.30;80.60;;;;;;5015893;28;20719;-59
2022/09/27 01:30:43;;;;;;;0.40;0.40;;;12.30;80.80;;;;;;5014185;28;20414;-59
2022/09/27 01:33:39;;;;;;;0.80;0.60;;;12.30;80.60;;;;;;5013339;28;20558;-58
2022/09/27 01:36:24;;;;;;;0.73;0.50;;;12.30;81.00;;;;;;5013320;28;20400;-60
2022/09/27 01:39:14;;;;;;;1.43;0.77;;;12.30;80.30;;;;;;5014006;28;20114;-60
2022/09/27 01:42:07;;;;;;;0.60;0.50;;;12.20;81.20;;;;;;5015345;28;20512;-59
2022/09/27 01:44:53;;;;;;;0.50;0.50;;;12.20;81.10;;;;;;5015931;28;20030;-59
2022/09/27 01:47:28;;;;;;;1.08;0.60;;;12.20;81.30;;;;;;5013898;28;20497;-59
2022/09/27 01:50:09;;;;;;;1.55;0.70;;;12.20;81.00;;;;;;5013946;28;20061;-58
2022/09/27 01:52:43;;;;;;;1.25;0.50;;;12.30;81.20;;;;;;5013408;28;20030;-59
2022/09/27 01:55:13;;;;;;;0.87;0.60;;;12.20;81.00;;;;;;5012985;28;21076;-59
2022/09/27 01:57:45;;;;;;;0.60;0.60;;;12.20;81.10;;;;;;5014494;28;20049;-57
2022/09/27 02:00:12;;;;;;;1.55;0.60;;;12.20;81.20;;;;;;5013909;28;20117;-60
2022/09/27 02:02:49;;;;;;;1.10;0.70;;;12.20;81.00;;;;;;5013892;28;20041;-60
2022/09/27 02:05:16;;;;;;;0.55;0.55;;;12.30;81.40;;;;;;5011127;28;20104;-58
2022/09/27 02:07:47;;;;;;;0.70;0.70;;;12.30;81.30;;;;;;5012885;28;20044;-59
2022/09/27 02:10:21;;;;;;;1.67;0.70;;;12.20;81.30;;;;;;5009577;28;20535;-59
2022/09/27 02:13:20;;;;;;;0.75;0.50;;;12.20;81.60;;;;;;5010716;28;20052;-59
2022/09/27 02:16:15;;;;;;;0.60;0.50;;;12.30;82.20;;;;;;4994541;28;20129;-59
2022/09/27 02:18:44;;;;;;;2.05;0.50;;;12.30;82.00;;;;;;5012719;28;21141;-59
2022/09/27 02:21:12;;;;;;;0.95;0.70;;;12.20;81.50;;;;;;5012284;28;20096;-61
2022/09/27 02:23:47;;;;;;;2.13;0.70;;;12.30;81.60;;;;;;5014737;28;20053;-60
2022/09/27 02:26:33;;;;;;;0.63;0.40;;;12.20;82.00;;;;;;5015634;28;20038;-61
2022/09/27 02:29:04;;;;;;;2.00;0.90;;;12.30;82.10;;;;;;5016739;28;20041;-60
2022/09/27 02:31:30;;;;;;;1.35;0.52;;;12.30;81.90;;;;;;5014205;28;20468;-60
2022/09/27 02:34:13;;;;;;;0.73;0.50;;;12.30;82.00;;;;;;5015287;28;20061;-60
2022/09/27 02:36:39;;;;;;;0.70;0.70;;;12.30;82.70;;;;;;5014942;28;20034;-58
2022/09/27 02:39:05;;;;;;;0.60;0.50;;;12.30;82.20;;;;;;5018914;28;20044;-59
2022/09/27 02:41:31;;;;;;;0.65;0.63;;;12.30;82.20;;;;;;5018896;28;20061;-60
2022/09/27 02:44:04;;;;;;;0.75;0.60;;;12.30;82.30;;;;;;5020041;28;20042;-61
2022/09/27 02:46:51;;;;;;;0.85;0.40;;;12.30;82.50;;;;;;5018443;28;20041;-58
2022/09/27 02:49:47;;;;;;;1.08;0.70;;;12.30;82.40;;;;;;5019127;28;20038;-58
2022/09/27 02:52:22;;;;;;;0.50;0.50;;;12.40;82.70;;;;;;5020144;28;20079;-59
2022/09/27 02:54:50;;;;;;;0.52;0.50;;;12.30;82.00;;;;;;5016907;28;20049;-60
2022/09/27 02:57:27;;;;;;;0.75;0.50;;;12.30;82.20;;;;;;5018133;28;20065;-59
2022/09/27 03:00:08;;;;;;;0.98;0.52;;;12.40;82.40;;;;;;5017471;28;20064;-58
2022/09/27 03:02:47;;;;;;;1.25;0.55;;;12.30;82.40;;;;;;5018417;28;20037;-58
2022/09/27 03:05:20;;;;;;;0.43;0.43;;;12.40;82.30;;;;;;5017126;28;20461;-60
2022/09/27 03:07:47;;;;;;;0.77;0.57;;;12.40;82.30;;;;;;5018103;28;20038;-60
2022/09/27 03:10:23;;;;;;;1.20;0.50;;;12.30;82.10;;;;;;5017227;28;20034;-60
2022/09/27 03:12:49;;;;;;;0.63;0.40;;;12.40;82.80;;;;;;5014820;28;20067;-59
2022/09/27 03:15:15;;;;;;;0.40;0.40;;;12.30;82.30;;;;;;5016272;28;20113;-61
2022/09/27 03:17:40;;;;;;;0.40;0.30;;;12.30;82.30;;;;;;5017020;28;20051;-61
2022/09/27 03:20:07;;;;;;;0.40;0.40;;;12.30;82.20;;;;;;5018658;28;20038;-60
2022/09/27 03:22:33;;;;;;;0.63;0.38;;;12.30;82.20;;;;;;5015382;28;20072;-60
2022/09/27 03:24:59;;;;;;;0.40;0.40;;;12.40;82.20;;;;;;5017607;28;20037;-60
2022/09/27 03:27:25;;;;;;;0.73;0.40;;;12.30;82.20;;;;;;5018076;28;20110;-58
2022/09/27 03:29:50;;;;;;;1.00;0.38;;;12.30;82.20;;;;;;5018490;28;20029;-61
2022/09/27 03:32:16;;;;;;;0.60;0.55;;;12.30;82.20;;;;;;5018424;28;20041;-59
2022/09/27 03:34:42;;;;;;;0.55;0.38;;;12.30;82.20;;;;;;5018097;28;20034;-58
2022/09/27 03:37:08;;;;;;;0.50;0.40;;;12.30;82.30;;;;;;5019622;28;20053;-59
2022/09/27 03:39:34;;;;;;;0.30;0.30;;;12.30;82.40;;;;;;5017172;28;20037;-60
2022/09/27 03:42:00;;;;;;;0.40;0.30;;;12.30;82.40;;;;;;5018986;28;20034;-60
2022/09/27 03:44:25;;;;;;;1.00;0.30;;;12.30;82.20;;;;;;5016873;28;20507;-61
2022/09/27 03:46:51;;;;;;;0.38;0.35;;;12.30;82.30;;;;;;5017824;28;20061;-59
2022/09/27 03:49:17;;;;;;;0.30;0.30;;;12.30;82.40;;;;;;5016779;28;20072;-60
2022/09/27 03:51:42;;;;;;;0.30;0.30;;;12.30;82.20;;;;;;5017581;28;20034;-61
2022/09/27 03:54:08;;;;;;;0.40;0.40;;;12.30;82.20;;;;;;5016354;28;20095;-58
2022/09/27 03:56:34;;;;;;;0.82;0.40;;;12.30;82.20;;;;;;5017095;28;20041;-60
2022/09/27 03:59:00;;;;;;;1.02;0.30;;;12.30;82.10;;;;;;5017477;28;20030;-60
2022/09/27 04:01:26;;;;;;;0.60;0.40;;;12.30;82.00;;;;;;5016622;28;20029;-59
2022/09/27 04:03:52;;;;;;;0.38;0.38;;;12.30;82.00;;;;;;5016381;28;20269;-60
2022/09/27 04:06:18;;;;;;;0.82;0.30;;;12.30;81.90;;;;;;5017315;28;20325;-59
2022/09/27 04:08:44;;;;;;;0.30;0.20;;;12.30;82.20;;;;;;5016656;28;20063;-58
2022/09/27 04:11:11;;;;;;;0.73;0.30;;;12.30;82.20;;;;;;5015427;28;20089;-58
2022/09/27 04:13:36;;;;;;;1.02;0.22;;;12.30;82.00;;;;;;5016183;28;20040;-58
2022/09/27 04:16:02;;;;;;;0.65;0.22;;;12.20;81.90;;;;;;5016816;28;20034;-59
2022/09/27 04:18:28;;;;;;;0.20;0.20;;;12.30;82.00;;;;;;5016855;28;20033;-60
2022/09/27 04:20:54;;;;;;;0.95;0.32;;;12.20;82.00;;;;;;5016492;28;20388;-60
2022/09/27 04:23:20;;;;;;;1.23;0.35;;;12.30;82.00;;;;;;5014452;28;20033;-58
2022/09/27 04:25:46;;;;;;;0.60;0.60;;;12.20;82.00;;;;;;5015422;28;20426;-58
2022/09/27 04:28:11;;;;;;;0.95;0.40;;;12.20;81.90;;;;;;5013667;28;20124;-58
2022/09/27 04:30:37;;;;;;;0.68;0.30;;;12.20;81.60;;;;;;5015831;28;20112;-58
2022/09/27 04:33:03;;;;;;;0.57;0.20;;;12.20;81.50;;;;;;5012905;28;20416;-59
2022/09/27 04:38:13;;;;;;;1.23;0.60;;;12.10;81.30;;;;;;5016973;28;20534;-58
2022/09/27 04:40:40;;;;;;;0.95;0.80;;;12.10;81.20;;;;;;5016635;28;20042;-58
2022/09/27 04:43:06;;;;;;;1.85;0.63;;;12.10;81.10;;;;;;5016687;28;20041;-59
2022/09/27 04:45:32;;;;;;;0.90;0.60;;;12.00;80.90;;;;;;5017071;28;20534;-60
2022/09/27 04:47:58;;;;;;;1.30;0.77;;;12.00;80.70;;;;;;5016273;28;20428;-60
2022/09/27 04:50:24;;;;;;;2.35;0.88;;;12.00;80.50;;;;;;5018214;28;20038;-60
2022/09/27 04:52:51;;;;;;;1.05;0.60;;;12.00;80.20;;;;;;5017013;28;20080;-60
2022/09/27 04:55:17;;;;;;;0.98;0.80;;;11.90;80.00;;;;;;5016980;28;20496;-61
2022/09/27 04:57:42;;;;;;;1.65;0.60;;;11.90;80.00;;;;;;5017527;28;20074;-57
2022/09/27 05:00:09;;;;;;;2.67;0.60;;;11.90;79.90;;;;;;5017598;28;20068;-60
2022/09/27 05:02:34;;;;;;;2.90;0.90;;;11.80;79.70;;;;;;5016036;28;20033;-60
2022/09/27 05:05:00;;;;;;;2.30;0.55;;;11.80;79.70;;;;;;5018380;28;20044;-59
2022/09/27 05:07:26;;;;;;;1.23;0.60;;;11.80;79.80;;;;;;5017123;28;20033;-60
2022/09/27 05:09:52;;;;;;;1.48;0.70;;;11.80;80.80;;;;;;5016780;28;20404;-60
2022/09/27 05:12:19;;;;;;;1.83;1.52;;;11.80;80.00;;;;;;5017926;28;20033;-61
2022/09/27 05:14:44;;;;;;;0.52;0.50;;;11.80;80.00;;;;;;5015169;28;20468;-59
2022/09/27 05:17:10;;;;;;;1.40;0.88;;;11.70;80.20;;;;;;5017323;28;20052;-61
2022/09/27 05:19:38;;;;;;;0.70;0.50;;;11.70;80.30;;;;;;5015587;28;20050;-60
2022/09/27 05:22:07;;;;;;;1.30;0.85;;;11.70;80.50;;;;;;5017571;28;20030;-60
2022/09/27 05:24:34;;;;;;;3.13;0.90;;;11.70;80.50;;;;;;5015778;28;20041;-61
2022/09/27 05:27:00;;;;;;;2.65;0.70;;;11.70;80.50;;;;;;5017580;28;20038;-60
2022/09/27 05:29:27;;;;;;;1.63;0.70;;;11.70;80.50;;;;;;5017367;28;20516;-59
2022/09/27 05:31:53;;;;;;;2.30;1.00;;;11.70;80.60;;;;;;5015815;28;20067;-59
2022/09/27 05:34:19;;;;;;;1.63;0.55;;;11.70;80.80;;;;;;5017285;28;20128;-59
2022/09/27 05:36:48;;;;;;;1.27;0.60;;;11.70;80.90;;;;;;5015936;28;20049;-60
2022/09/27 05:39:16;;;;;;;2.22;0.70;;;11.70;81.00;;;;;;5016579;28;20500;-57
2022/09/27 05:41:42;;;;;;;1.60;0.40;;;11.70;81.00;;;;;;5015112;28;20386;-58
2022/09/27 05:44:08;;;;;;;1.13;0.68;;;11.70;81.20;;;;;;5016184;28;20038;-59
2022/09/27 05:46:34;;;;;;;1.13;0.40;;;11.70;81.20;;;;;;5016427;28;20025;-59
2022/09/27 05:48:59;;;;;;;1.77;0.60;;;11.70;81.30;;;;;;5015759;28;20502;-60
2022/09/27 05:51:25;;;;;;;1.35;0.50;;;11.70;81.40;;;;;;5015594;28;20022;-59
2022/09/27 05:53:51;;;;;;;3.70;0.60;;;11.70;81.50;;;;;;5017345;28;20044;-59
2022/09/27 05:56:16;;;;;;;3.80;0.88;;;11.70;81.70;;;;;;5016079;28;20041;-58
2022/09/27 05:58:42;;;;;;;0.85;0.47;;;11.80;81.80;;;;;;5016641;28;20045;-61
2022/09/27 06:01:08;;;;;;;1.73;0.63;;;11.80;81.90;;;;;;5017412;28;20038;-61
2022/09/27 06:03:35;;;;;;;1.67;0.50;;;11.80;82.00;;;;;;5017331;28;20077;-59
2022/09/27 06:06:04;;;;;;;3.78;0.60;;;11.80;82.40;;;;;;5015864;28;20795;-61
2022/09/27 06:08:33;;;;;;;3.42;0.60;;;11.80;82.20;;;;;;5017323;28;20045;-61
2022/09/27 06:11:08;;;;;;;1.02;0.40;;;11.70;80.10;;;;;;5015362;28;20033;-60
2022/09/27 06:13:38;;;;;;;0.90;0.57;;;11.60;79.40;;;;;;5015486;28;20338;-60
2022/09/27 06:16:04;;;;;;;0.65;0.43;;;11.50;79.40;;;;;;5016491;28;20034;-59
2022/09/27 06:18:30;;;;;;;3.30;0.80;;;11.30;79.20;;;;;;5016301;28;20160;-59
2022/09/27 06:20:59;;;;;;;0.52;0.50;;;11.30;80.50;;;;;;5016670;28;20087;-57
2022/09/27 06:23:25;;;;;;;1.40;0.70;;;11.10;80.20;;;;;;5015570;28;20065;-60
2022/09/27 06:25:51;;;;;;;2.78;0.80;;;11.00;80.60;;;;;;5015501;28;20121;-58
2022/09/27 06:28:18;;;;;;;6.28;2.58;;;11.00;81.00;;;;;;5016206;28;20555;-58
2022/09/27 06:30:48;;;;;;;2.45;1.85;;;11.00;81.60;;;;;;5015241;28;20557;-58
2022/09/27 06:33:16;;;;;;;1.52;0.80;;;11.00;82.20;;;;;;5014845;28;20037;-57
2022/09/27 06:35:44;;;;;;;1.42;0.82;;;10.90;82.40;;;;;;5015577;28;20038;-60
2022/09/27 06:38:12;;;;;;;1.38;0.70;;;11.00;82.60;;;;;;5016760;28;20524;-57
2022/09/27 06:40:38;;;;;;;3.85;1.40;;;11.00;82.40;;;;;;5015970;28;20045;-59
2022/09/27 06:43:07;;;;;;;4.93;2.35;;;11.00;82.20;;;;;;5014763;28;20459;-59
2022/09/27 06:45:34;;;;;;;5.78;3.00;;;11.00;81.90;;;;;;5016575;28;20034;-59
2022/09/27 06:48:01;;;;;;;2.22;1.30;;;11.00;81.80;;;;;;4997935;28;20323;-60
2022/09/27 06:50:31;;;;;;;9.60;5.30;;;11.00;81.70;;;;;;5015137;28;20034;-60
2022/09/27 06:52:57;;;;;;;2.60;1.33;;;11.00;82.00;;;;;;5015350;28;20065;-59
2022/09/27 06:55:23;;;;;;;1.75;1.10;;;11.10;81.50;;;;;;5016198;28;20078;-60
2022/09/27 07:00:41;;;;;;;0.88;0.30;;;11.10;81.70;;;;;;5013845;28;20048;-60
2022/09/27 07:03:10;;;;;;;0.30;0.20;;;11.10;81.30;;;;;;5014992;28;20373;-57
2022/09/27 07:05:36;;;;;;;0.43;0.20;;;11.10;81.00;;;;;;5015372;28;20038;-58
2022/09/27 07:08:02;;;;;;;0.82;0.30;;;11.10;81.00;;;;;;5014799;28;20077;-60
2022/09/27 07:10:32;;;;;;;0.93;0.30;;;11.10;81.20;;;;;;5015335;28;20527;-60
2022/09/27 07:13:11;;;;;;;1.35;0.30;;;11.10;81.20;;;;;;5012698;28;20033;-60
2022/09/27 07:15:40;;;;;;;0.68;0.30;;;11.00;81.00;;;;;;5015395;28;20041;-60
2022/09/27 07:18:07;;;;;;;0.63;0.20;;;11.00;81.00;;;;;;5014615;28;20052;-60
2022/09/27 07:20:37;;;;;;;0.32;0.17;;;11.10;81.20;;;;;;5013493;28;20044;-60
2022/09/27 07:23:04;;;;;;;0.40;0.10;;;11.10;81.00;;;;;;5016333;28;20041;-60
2022/09/27 07:25:30;;;;;;;1.52;0.50;;;11.10;81.90;;;;;;5018751;28;20061;-60
2022/09/27 07:28:04;;;;;;;1.45;0.50;;;11.00;81.10;;;;;;5018325;28;20041;-59
2022/09/27 07:30:31;;;;;;;0.93;0.40;;;11.00;81.30;;;;;;5017810;28;20430;-61
2022/09/27 07:33:02;;;;;;;0.60;0.50;;;11.10;81.30;;;;;;5018952;28;20092;-58
2022/09/27 07:35:28;;;;;;;3.35;0.70;;;11.10;81.50;;;;;;5017807;28;20478;-60
2022/09/27 07:37:55;;;;;;;1.48;0.50;;;11.10;81.50;;;;;;5018600;28;20042;-59
2022/09/27 07:40:21;;;;;;;1.17;0.30;;;11.10;81.90;;;;;;5019246;28;20428;-60
2022/09/27 07:42:53;;;;;;;1.95;0.63;;;11.10;81.90;;;;;;5016466;28;20041;-59
2022/09/27 07:45:18;;;;;;;0.65;0.40;;;11.10;82.00;;;;;;5018298;28;20107;-59
2022/09/27 07:47:44;;;;;;;1.58;0.55;;;11.20;82.10;;;;;;5017708;28;20556;-58
2022/09/27 07:50:10;;;;;;;1.02;0.50;;;11.30;81.80;;;;;;5018122;28;20136;-59
2022/09/27 07:52:44;;;;;;;0.70;0.40;;;11.30;81.60;;;;;;5017516;28;20038;-58
2022/09/27 07:55:12;;;;;;;1.08;0.50;;;11.40;81.90;;;;;;5019081;28;20037;-59
2022/09/27 07:57:38;;;;;;;0.75;0.40;;;11.40;81.60;;;;;;5017872;28;20506;-58
2022/09/27 08:00:06;;;;;;;1.05;0.60;;;11.40;81.30;;;;;;5017407;28;20029;-59
2022/09/27 08:02:32;;;;;;;2.75;0.50;;;11.50;81.30;;;;;;5014698;28;20057;-58
2022/09/27 08:05:01;;;;;;;0.80;0.60;;;11.50;81.30;;;;;;5016875;28;20501;-61
2022/09/27 08:07:27;;;;;;;1.23;0.50;;;11.50;81.50;;;;;;5019896;28;20040;-59
2022/09/27 08:09:53;;;;;;;1.65;0.30;;;11.60;81.10;;;;;;5018503;28;20033;-60
2022/09/27 08:12:20;;;;;;;2.38;0.47;;;11.60;81.10;;;;;;5017361;28;20505;-60
2022/09/27 08:14:46;;;;;;;1.35;0.30;;;11.60;81.10;;;;;;5018562;28;20061;-60
2022/09/27 08:17:12;;;;;;;1.73;0.40;;;11.70;80.80;;;;;;5019551;28;20398;-59
2022/09/27 08:19:39;;;;;;;1.20;0.43;;;11.70;80.60;;;;;;5015943;28;20060;-59
2022/09/27 08:22:06;;;;;;;1.17;0.50;;;11.70;80.60;;;;;;5018417;28;20034;-58
2022/09/27 08:24:32;;;;;;;0.65;0.40;;;11.70;80.50;;;;;;5016410;28;20037;-60
2022/09/27 08:26:58;;;;;;;1.48;0.40;;;11.80;80.50;;;;;;5018292;28;20037;-60
2022/09/27 08:29:23;;;;;;;1.52;0.50;;;11.80;81.40;;;;;;5019364;28;20073;-60
2022/09/27 08:31:53;;;;;;;1.25;0.50;;;11.80;79.90;;;;;;5018000;28;20396;-58
2022/09/27 08:34:20;;;;;;;0.60;0.45;;;11.90;79.80;;;;;;5016517;28;20037;-58
2022/09/27 08:36:46;;;;;;;0.88;0.45;;;11.90;79.50;;;;;;5016898;28;20408;-59
2022/09/27 08:39:12;;;;;;;0.88;0.47;;;11.90;78.90;;;;;;5019435;28;20038;-58
2022/09/27 08:41:57;;;;;;;0.90;0.40;;;11.90;78.80;;;;;;5019574;28;20397;-59
2022/09/27 08:44:41;;;;;;;0.95;0.70;;;11.90;78.70;;;;;;5018817;28;20030;-59
2022/09/27 08:47:13;;;;;;;0.85;0.60;;;11.90;78.60;;;;;;5013863;28;20037;-60
2022/09/27 08:49:47;;;;;;;2.25;0.80;;;11.90;78.20;;;;;;5019393;28;20047;-61
2022/09/27 08:52:19;;;;;;;1.05;0.50;;;12.00;78.30;;;;;;5018683;28;20065;-59
2022/09/27 08:54:45;;;;;;;1.30;0.90;;;12.00;78.60;;;;;;5019057;28;20038;-61
2022/09/27 08:57:12;;;;;;;1.52;0.68;;;12.00;78.90;;;;;;5018763;28;20399;-57
2022/09/27 09:00:06;;;;;;;1.05;0.70;;;12.00;79.00;;;;;;5018937;28;20034;-61
2022/09/27 09:02:32;;;;;;;1.23;0.60;;;12.10;78.60;;;;;;5018610;28;20041;-58
2022/09/27 09:05:07;;;;;;;1.08;0.60;;;12.10;78.50;;;;;;5019632;28;20034;-59
2022/09/27 09:07:57;;;;;;;0.45;0.32;;;12.10;78.10;;;;;;5019404;28;20467;-60
2022/09/27 09:13:37;;;;;;;2.63;0.85;;;12.20;76.80;;;;;;5019385;28;20044;-59
2022/09/27 09:16:39;;;;;;;0.82;0.60;;;12.20;77.00;;;;;;5019370;28;20037;-61
2022/09/27 09:19:29;;;;;;;0.85;0.40;;;12.30;76.60;;;;;;5019061;28;20038;-60
2022/09/27 09:22:04;;;;;;;1.05;0.57;;;12.30;76.80;;;;;;5019769;28;20033;-58
2022/09/27 09:24:40;;;;;;;;;;;12.30;76.50;;;;;;5020071;28;20401;-61
2022/09/27 09:27:19;;;;;;;0.82;0.30;;;12.40;76.60;;;;;;5017660;28;19921;-59
2022/09/27 09:30:09;;;;;;;1.67;0.50;;;12.40;76.40;;;;;;5018450;28;20064;-61
2022/09/27 09:32:48;;;;;;;0.28;0.20;;;12.40;76.40;;;;;;5014946;28;20041;-60
2022/09/27 09:35:31;;;;;;;0.73;0.40;;;12.40;76.70;;;;;;5016135;28;20091;-60
2022/09/27 09:38:03;;;;;;;0.50;0.30;;;12.50;76.80;;;;;;5016570;28;20705;-60
2022/09/27 09:40:45;;;;;;;1.00;0.50;;;12.50;76.80;;;;;;5017898;28;20034;-61
2022/09/27 09:43:37;;;;;;;0.63;0.43;;;12.60;77.10;;;;;;5017230;28;20045;-60
2022/09/27 09:46:09;;;;;;;0.77;0.50;;;12.80;76.40;;;;;;5014824;28;20088;-60
2022/09/27 09:48:48;;;;;;;0.40;0.40;;;12.80;75.40;;;;;;5014543;28;20077;-60
2022/09/27 09:51:27;;;;;;;2.30;0.63;;;12.90;74.90;;;;;;5015466;28;20476;-59
2022/09/27 09:54:15;;;;;;;3.00;0.80;;;12.90;73.60;;;;;;5014985;28;20033;-60
2022/09/27 09:56:50;;;;;;;2.05;0.60;;;12.90;73.30;;;;;;5015166;28;20045;-60
2022/09/27 09:59:27;;;;;;;0.95;0.50;;;12.90;73.70;;;;;;5015568;28;20096;-59
2022/09/27 10:01:55;;;;;;;0.80;0.50;;;12.90;73.90;;;;;;5016160;28;20045;-60
2022/09/27 10:04:24;;;;;;;2.15;0.63;;;12.90;74.20;;;;;;5017028;28;20502;-60
2022/09/27 10:06:51;;;;;;;0.82;0.35;;;12.90;74.00;;;;;;5015929;28;20038;-60
2022/09/27 10:09:23;;;;;;;1.63;0.47;;;12.90;74.50;;;;;;5015123;28;20045;-60
2022/09/27 10:11:49;;;;;;;1.27;0.40;;;12.90;75.10;;;;;;5016195;28;20095;-59
2022/09/27 10:14:19;;;;;;;0.45;0.38;;;12.90;75.40;;;;;;5016872;28;20029;-60
2022/09/27 10:16:52;;;;;;;0.55;0.38;;;13.00;75.10;;;;;;5016484;28;20056;-59
2022/09/27 10:19:27;;;;;;;0.55;0.40;;;13.00;75.10;;;;;;5016373;28;21125;-60
2022/09/27 10:21:57;;;;;;;2.75;0.30;;;13.00;74.90;;;;;;5014429;28;20033;-59
2022/09/27 10:24:24;;;;;;;0.60;0.40;;;13.00;75.00;;;;;;5016663;28;20037;-60
2022/09/27 10:26:50;;;;;;;1.02;0.47;;;13.00;74.90;;;;;;5015234;28;20286;-59
2022/09/27 10:29:19;;;;;;;0.55;0.40;;;13.00;75.80;;;;;;5015865;28;20045;-59
2022/09/27 10:31:47;;;;;;;0.35;0.30;;;13.00;75.30;;;;;;5015360;28;20411;-59
2022/09/27 10:34:41;;;;;;;0.50;0.40;;;13.10;75.70;;;;;;5016199;28;20052;-60
2022/09/27 10:37:18;;;;;;;1.38;0.47;;;13.10;75.80;;;;;;5006329;28;20095;-61
2022/09/27 10:39:46;;;;;;;1.13;0.43;;;13.10;75.10;;;;;;5016368;28;20092;-60
2022/09/27 10:42:33;;;;;;;0.75;0.40;;;13.10;75.00;;;;;;5015823;28;20417;-60
2022/09/27 10:45:21;;;;;;;0.40;0.40;;;13.10;75.30;;;;;;5016590;28;20040;-60
2022/09/27 10:47:47;;;;;;;2.20;0.50;;;13.10;75.30;;;;;;5016800;28;20095;-60
2022/09/27 10:50:38;;;;;;;0.95;0.35;;;13.10;75.40;;;;;;5015206;28;20045;-59
2022/09/27 10:53:19;;;;;;;0.52;0.40;;;13.20;74.90;;;;;;5015030;28;20057;-59
2022/09/27 10:55:50;;;;;;;1.15;0.47;;;13.10;74.40;;;;;;5014173;28;20065;-59
2022/09/27 10:58:38;;;;;;;0.52;0.50;;;13.20;74.70;;;;;;5020367;28;20630;-59
2022/09/27 11:01:08;;;;;;;0.95;0.40;;;13.20;74.70;;;;;;5019209;28;20033;-60
2022/09/27 11:03:45;;;;;;;1.67;0.70;;;13.20;74.20;;;;;;5021521;28;20030;-57
2022/09/27 11:06:18;;;;;;;0.63;0.50;;;13.20;73.80;;;;;;5018599;28;20646;-61
2022/09/27 11:08:47;;;;;;;0.50;0.40;;;13.20;73.80;;;;;;5017272;28;20042;-60
2022/09/27 11:11:13;;;;;;;0.30;0.30;;;13.30;73.90;;;;;;5019594;28;20030;-58
2022/09/27 11:13:39;;;;;;;0.70;0.30;;;13.30;73.90;;;;;;5019936;28;20120;-61
2022/09/27 11:16:43;;;;;;;1.67;0.45;;;13.30;73.40;;;;;;5019094;28;20495;-62
2022/09/27 11:19:18;;;;;;;0.50;0.35;;;13.30;72.50;;;;;;5017695;28;20496;-62
2022/09/27 11:22:00;;;;;;;0.65;0.40;;;13.30;72.60;;;;;;5020485;28;20493;-62
2022/09/27 11:24:31;;;;;;;1.00;0.40;;;13.30;72.40;;;;;;5018315;28;20057;-61
2022/09/27 11:27:24;;;;;;;2.92;0.50;;;13.30;72.00;;;;;;5018291;28;20037;-61
2022/09/27 11:30:16;;;;;;;2.75;0.40;;;13.40;72.30;;;;;;5019210;28;20112;-59
2022/09/27 11:33:04;;;;;;;0.50;0.30;;;13.40;72.40;;;;;;5016920;28;20765;-59
2022/09/27 11:36:06;;;;;;;0.50;0.38;;;13.50;71.70;;;;;;5019221;28;20042;-61
2022/09/27 11:38:31;;;;;;;0.63;0.30;;;13.60;71.30;;;;;;5020347;28;20048;-60
2022/09/27 11:41:03;;;;;;;2.80;0.40;;;13.60;71.80;;;;;;5017979;28;20052;-60
2022/09/27 11:43:54;;;;;;;0.60;0.30;;;13.70;71.10;;;;;;5020584;28;20045;-61
2022/09/27 11:46:31;;;;;;;1.95;0.30;;;13.70;71.10;;;;;;5018992;28;20150;-61
2022/09/27 11:49:11;;;;;;;1.05;0.22;;;13.70;71.40;;;;;;5018713;28;20064;-62
2022/09/27 11:51:52;;;;;;;1.00;0.40;;;13.80;70.60;;;;;;5017623;28;20067;-61
2022/09/27 11:54:39;;;;;;;2.15;0.40;;;13.80;70.60;;;;;;5018924;28;20087;-59
2022/09/27 11:57:11;;;;;;;0.45;0.20;;;13.80;70.80;;;;;;5021878;28;20523;-60
2022/09/27 11:59:45;;;;;;;1.33;0.35;;;13.90;71.60;;;;;;5018858;28;20068;-61
2022/09/27 12:02:17;;;;;;;0.95;0.30;;;14.00;70.70;;;;;;5020380;28;20136;-60
2022/09/27 12:05:00;;;;;;;1.40;0.35;;;14.10;70.70;;;;;;5018722;28;20065;-60
2022/09/27 12:07:57;;;;;;;0.57;0.52;;;14.10;70.70;;;;;;5018374;28;20037;-60
2022/09/27 12:10:23;;;;;;;0.98;0.40;;;14.20;69.20;;;;;;5018770;28;20071;-61
2022/09/27 12:12:56;;;;;;;0.88;0.30;;;14.30;69.00;;;;;;5015593;28;20037;-62
2022/09/27 12:15:29;;;;;;;0.65;0.20;;;14.40;68.40;;;;;;5018930;28;20088;-60
2022/09/27 12:18:21;;;;;;;1.17;0.20;;;14.40;68.20;;;;;;5019361;28;20168;-60
2022/09/27 12:20:47;;;;;;;0.95;0.35;;;14.50;67.30;;;;;;5015607;28;20051;-60
2022/09/27 12:23:28;;;;;;;0.30;0.30;;;14.50;67.70;;;;;;5018576;28;20030;-60
2022/09/27 12:25:59;;;;;;;1.13;0.77;;;14.60;67.30;;;;;;5016553;28;20042;-58
2022/09/27 12:28:54;;;;;;;0.82;0.30;;;14.60;67.50;;;;;;5018702;28;20076;-60
2022/09/27 12:31:28;;;;;;;0.17;0.17;;;14.60;66.10;;;;;;5017911;28;20163;-62
2022/09/27 12:33:59;;;;;;;0.90;0.30;;;14.60;66.40;;;;;;5017310;28;20957;-61
2022/09/27 12:36:31;;;;;;;0.60;0.30;;;14.70;66.30;;;;;;5016939;28;20532;-60
2022/09/27 12:39:20;;;;;;;0.68;0.20;;;14.60;66.70;;;;;;5016670;28;20401;-60
2022/09/27 12:42:08;;;;;;;3.50;0.17;;;14.60;66.70;;;;;;5019817;28;20037;-60
2022/09/27 12:44:39;;;;;;;1.30;0.10;;;14.60;67.30;;;;;;5018625;28;20041;-59
2022/09/27 12:47:23;;;;;;;0.20;0.20;;;14.60;67.10;;;;;;5016844;28;20505;-59
2022/09/27 12:50:29;;;;;;;1.30;0.10;;;14.60;66.90;;;;;;5018057;28;20057;-61
2022/09/27 12:53:03;;;;;;;;;;;14.60;66.90;;;;;;5009044;28;20065;-59
2022/09/27 12:55:52;;;;;;;0.52;0.20;;;14.60;66.70;;;;;;5018615;28;20024;-61
2022/09/27 12:58:39;;;;;;;0.30;0.10;;;14.60;67.10;;;;;;5016557;28;20044;-60
2022/09/27 13:01:32;;;;;;;0.20;0.10;;;14.60;67.40;;;;;;5014819;28;20033;-61
2022/09/27 13:04:15;;;;;;;0.50;0.17;;;14.60;67.10;;;;;;5017334;28;20033;-61
2022/09/27 13:06:55;;;;;;;0.60;0.10;;;14.60;66.70;;;;;;5015862;28;20068;-60
2022/09/27 13:09:34;;;;;;;0.47;0.30;;;14.60;67.40;;;;;;5016703;28;20037;-61
2022/09/27 13:12:09;;;;;;;0.35;0.30;;;14.60;67.30;;;;;;5015198;28;20037;-62
2022/09/27 13:14:45;;;;;;;1.13;0.20;;;14.50;67.10;;;;;;5014428;28;20034;-59
2022/09/27 13:17:44;;;;;;;0.60;0.30;;;14.50;66.90;;;;;;5013195;28;20060;-60
2022/09/27 13:20:31;;;;;;;1.10;0.30;;;14.50;66.70;;;;;;5016511;28;20064;-62
2022/09/27 13:22:59;;;;;;;2.17;0.30;;;14.50;66.60;;;;;;5014550;28;20132;-60
2022/09/27 13:25:50;;;;;;;0.90;0.20;;;14.50;66.90;;;;;;5017703;28;20505;-62